Time;durP1;ratioP1;P1;durP2;ratioP2;P2;SDS_P1;SDS_P2;PMS_P1;PMS_P2;Temp;Humidity;BMP_temperature;BMP_pressure;BME280_temperature;BME280_humidity;BME280_pressure;Samples;Min_cycle;Max_cycle;Signal;HPM_P1;HPM_P2
2022/01/19 00:02:39;;;;;;;13.53;4.07;;;;;;;;;;6209997;23;20195;-91
2022/01/19 00:11:36;;;;;;;15.73;4.57;;;;;;;;;;6166342;22;20212;-91
2022/01/19 00:29:32;;;;;;;16.33;5.00;;;;;;;;;;6150923;23;20207;-90
2022/01/19 00:32:40;;;;;;;17.90;4.60;;;;;;;;;;6203234;23;20279;-91
2022/01/19 00:38:43;;;;;;;16.93;5.50;;;;;;;;;;6262606;22;20199;-91
2022/01/19 00:41:50;;;;;;;17.27;5.37;;;;;;;;;;6251647;22;20189;-91
2022/01/19 00:53:45;;;;;;;20.50;5.80;;;;;;;;;;6206136;22;20250;-91
2022/01/19 00:56:56;;;;;;;18.93;5.53;;;;;;;;;;6208088;23;20172;-90
2022/01/19 01:00:02;;;;;;;15.33;4.57;;;;;;;;;;6207185;23;20164;-91
2022/01/19 01:03:07;;;;;;;14.67;4.87;;;;;;;;;;6198504;22;20203;-91
2022/01/19 01:12:42;;;;;;;16.20;4.43;;;;;;;;;;6209917;23;20176;-91
2022/01/19 01:15:49;;;;;;;12.13;4.10;;;;;;;;;;6208663;23;20156;-91
2022/01/19 01:24:51;;;;;;;20.07;5.10;;;;;;;;;;6176974;22;20193;-90
2022/01/19 01:30:42;;;;;;;11.87;4.27;;;;;;;;;;6183840;22;20220;-90
2022/01/19 01:33:47;;;;;;;19.87;5.30;;;;;;;;;;6182526;22;20239;-92
2022/01/19 01:36:52;;;;;;;14.70;4.80;;;;;;;;;;6203037;23;20256;-91
2022/01/19 01:55:14;;;;;;;12.33;4.60;;;;;;;;;;6158215;23;20222;-91
2022/01/19 01:58:20;;;;;;;11.20;4.97;;;;;;;;;;6157515;23;20160;-90
2022/01/19 02:01:38;;;;;;;12.87;5.17;;;;;;;;;;6158148;23;20204;-89
2022/01/19 02:04:48;;;;;;;12.63;4.30;;;;;;;;;;6157160;23;20217;-90
2022/01/19 02:08:05;;;;;;;12.40;4.80;;;;;;;;;;6157209;23;20176;-91
2022/01/19 02:21:44;;;;;;;15.23;4.60;;;;;;;;;;6158106;23;20597;-89
2022/01/19 02:24:49;;;;;;;19.73;4.97;;;;;;;;;;6155883;23;20632;-91
2022/01/19 02:44:36;;;;;;;16.03;5.33;;;;;;;;;;6123856;23;20207;-91
2022/01/19 02:51:08;;;;;;;15.00;4.47;;;;;;;;;;6124697;23;20174;-91
2022/01/19 02:54:13;;;;;;;11.90;4.20;;;;;;;;;;6142126;23;20172;-90
2022/01/19 02:57:24;;;;;;;16.40;5.50;;;;;;;;;;6124481;23;20173;-90
2022/01/19 03:10:41;;;;;;;11.30;4.40;;;;;;;;;;6116771;23;20217;-90
2022/01/19 03:13:47;;;;;;;11.10;4.07;;;;;;;;;;6125881;23;20193;-91
2022/01/19 03:16:54;;;;;;;14.43;5.00;;;;;;;;;;6125776;23;20177;-91
2022/01/19 03:20:00;;;;;;;13.57;4.50;;;;;;;;;;6127009;23;20236;-91
2022/01/19 03:23:14;;;;;;;11.67;4.37;;;;;;;;;;6127807;23;20203;-89
2022/01/19 03:26:20;;;;;;;10.37;4.03;;;;;;;;;;6128183;23;20174;-92
2022/01/19 03:29:44;;;;;;;13.70;4.20;;;;;;;;;;6142642;23;20594;-92
2022/01/19 03:32:51;;;;;;;12.97;3.97;;;;;;;;;;6125725;23;20224;-91
2022/01/19 03:35:56;;;;;;;11.73;3.90;;;;;;;;;;6127746;23;20157;-91
2022/01/19 03:39:01;;;;;;;17.67;3.80;;;;;;;;;;6125650;23;20157;-91
2022/01/19 03:42:07;;;;;;;10.60;4.17;;;;;;;;;;6138482;23;20539;-91
2022/01/19 03:45:13;;;;;;;13.97;4.50;;;;;;;;;;6172261;23;20172;-93
2022/01/19 03:48:34;;;;;;;11.67;4.07;;;;;;;;;;6173464;23;20180;-92
2022/01/19 03:51:40;;;;;;;17.73;4.40;;;;;;;;;;6172589;23;20189;-90
2022/01/19 03:54:45;;;;;;;12.27;4.13;;;;;;;;;;6175450;23;20213;-91
2022/01/19 03:57:51;;;;;;;13.17;4.77;;;;;;;;;;6173816;23;20173;-92
2022/01/19 04:00:58;;;;;;;13.33;3.97;;;;;;;;;;6173351;23;20200;-91
2022/01/19 04:07:24;;;;;;;14.63;4.00;;;;;;;;;;6172730;23;20180;-92
2022/01/19 04:10:30;;;;;;;14.50;4.37;;;;;;;;;;6173373;23;20225;-92
2022/01/19 04:13:56;;;;;;;22.37;4.73;;;;;;;;;;6171810;23;20212;-93
2022/01/19 04:17:04;;;;;;;15.33;5.07;;;;;;;;;;6173467;23;20157;-91
2022/01/19 04:20:13;;;;;;;12.30;4.53;;;;;;;;;;6170528;23;20213;-93
2022/01/19 04:23:19;;;;;;;10.50;4.17;;;;;;;;;;6174883;23;20201;-91
2022/01/19 04:26:24;;;;;;;12.77;4.47;;;;;;;;;;6173456;23;20240;-92
2022/01/19 04:29:31;;;;;;;11.03;4.03;;;;;;;;;;6169160;23;20172;-92
2022/01/19 04:32:43;;;;;;;10.87;4.57;;;;;;;;;;6171410;23;20197;-91
2022/01/19 04:35:52;;;;;;;11.70;4.67;;;;;;;;;;6171011;23;20169;-91
2022/01/19 04:39:25;;;;;;;14.33;4.63;;;;;;;;;;6173774;23;20188;-91
2022/01/19 04:46:12;;;;;;;11.37;4.40;;;;;;;;;;6173591;23;20161;-93
2022/01/19 05:03:12;;;;;;;12.23;4.53;;;;;;;;;;6171976;23;20212;-91
2022/01/19 05:06:38;;;;;;;7.57;3.50;;;;;;;;;;6174413;23;20148;-92
2022/01/19 05:16:28;;;;;;;12.30;3.57;;;;;;;;;;6172605;23;20153;-92
2022/01/19 05:19:34;;;;;;;17.03;4.37;;;;;;;;;;6173479;23;20654;-92
2022/01/19 05:22:39;;;;;;;13.03;4.27;;;;;;;;;;6173649;23;20207;-90
2022/01/19 05:25:51;;;;;;;11.03;4.20;;;;;;;;;;6173415;23;20628;-92
2022/01/19 05:29:06;;;;;;;13.97;4.40;;;;;;;;;;6174518;23;20216;-92
2022/01/19 05:32:12;;;;;;;11.43;4.93;;;;;;;;;;6174021;23;20184;-91
2022/01/19 05:35:18;;;;;;;14.73;4.10;;;;;;;;;;6174101;23;20167;-90
2022/01/19 05:38:42;;;;;;;10.10;3.90;;;;;;;;;;6176803;23;20176;-92
2022/01/19 05:41:57;;;;;;;8.70;4.50;;;;;;;;;;6174218;23;20204;-91
2022/01/19 05:45:03;;;;;;;11.23;5.17;;;;;;;;;;6175143;23;20180;-93
2022/01/19 05:48:09;;;;;;;16.27;4.50;;;;;;;;;;6175642;23;20209;-92
2022/01/19 05:51:16;;;;;;;15.93;4.83;;;;;;;;;;6175241;23;20164;-90
2022/01/19 05:54:21;;;;;;;11.53;4.30;;;;;;;;;;6177072;23;20168;-91
2022/01/19 05:57:35;;;;;;;11.20;4.33;;;;;;;;;;6176464;23;20201;-91
2022/01/19 06:00:45;;;;;;;14.30;4.33;;;;;;;;;;6175212;23;20228;-90
2022/01/19 06:03:52;;;;;;;13.77;4.67;;;;;;;;;;6177752;23;20233;-91
2022/01/19 06:07:16;;;;;;;17.17;5.93;;;;;;;;;;6176671;23;20213;-90
2022/01/19 06:10:43;;;;;;;10.70;4.30;;;;;;;;;;6175420;23;20201;-91
2022/01/19 06:13:54;;;;;;;11.63;5.10;;;;;;;;;;6176178;23;20224;-91
2022/01/19 06:17:02;;;;;;;9.30;4.37;;;;;;;;;;6177660;23;20189;-91
2022/01/19 06:20:08;;;;;;;13.93;4.10;;;;;;;;;;6176354;23;20184;-92
2022/01/19 06:23:13;;;;;;;11.37;4.63;;;;;;;;;;6176211;23;20180;-90
2022/01/19 06:26:29;;;;;;;14.00;4.13;;;;;;;;;;6175226;23;20164;-91
2022/01/19 06:29:36;;;;;;;17.30;6.77;;;;;;;;;;6177550;23;20156;-91
2022/01/19 06:32:44;;;;;;;11.43;4.67;;;;;;;;;;6176126;23;20176;-90
2022/01/19 06:35:50;;;;;;;15.93;5.53;;;;;;;;;;6177406;23;20213;-92
2022/01/19 12:27:58;;;;;;;19.17;8.27;;;;;;;;;;6248688;22;20214;-91
2022/01/19 13:42:03;;;;;;;10.87;4.43;;;;;;;;;;6264059;22;20248;-92
2022/01/19 13:48:59;;;;;;;15.33;4.53;;;;;;;;;;6251372;22;20171;-89
2022/01/19 13:52:11;;;;;;;14.40;4.80;;;;;;;;;;6251316;22;20158;-92
2022/01/19 13:55:21;;;;;;;15.03;5.33;;;;;;;;;;6250955;22;20234;-90
2022/01/19 15:48:46;;;;;;;31.63;11.77;;;;;;;;;;6210880;22;20184;-92
2022/01/19 15:51:51;;;;;;;35.57;12.47;;;;;;;;;;6205473;23;20155;-90
2022/01/19 15:54:58;;;;;;;31.83;12.53;;;;;;;;;;6205597;23;20217;-91
2022/01/19 15:58:03;;;;;;;44.17;18.10;;;;;;;;;;6203635;23;20191;-88
2022/01/19 16:01:10;;;;;;;36.10;16.00;;;;;;;;;;6204717;23;20253;-88
2022/01/19 16:04:18;;;;;;;31.83;13.83;;;;;;;;;;6206409;23;20252;-89
2022/01/19 16:07:29;;;;;;;33.60;12.93;;;;;;;;;;6205997;23;20159;-90
2022/01/19 16:10:36;;;;;;;29.87;11.83;;;;;;;;;;6205395;23;20168;-90
2022/01/19 16:13:58;;;;;;;31.23;11.63;;;;;;;;;;6206915;23;20221;-87
2022/01/19 16:17:03;;;;;;;40.97;15.87;;;;;;;;;;6205678;23;20156;-92
2022/01/19 16:20:13;;;;;;;41.37;14.77;;;;;;;;;;6205181;23;20190;-87
2022/01/19 16:26:43;;;;;;;37.30;15.97;;;;;;;;;;6203883;23;20188;-89
2022/01/19 16:29:49;;;;;;;43.37;15.50;;;;;;;;;;6202941;23;20168;-90
2022/01/19 16:33:02;;;;;;;39.07;14.80;;;;;;;;;;6201546;23;20661;-92
2022/01/19 16:36:09;;;;;;;39.87;16.43;;;;;;;;;;6204584;23;20172;-91
2022/01/19 16:39:17;;;;;;;55.30;18.03;;;;;;;;;;6205354;23;20179;-90
2022/01/19 16:42:25;;;;;;;39.40;14.73;;;;;;;;;;6205100;23;20252;-90
2022/01/19 16:45:33;;;;;;;42.23;15.47;;;;;;;;;;6203575;23;20172;-88
2022/01/19 16:49:08;;;;;;;42.30;14.90;;;;;;;;;;6218246;23;20242;-90
2022/01/19 16:52:25;;;;;;;42.67;16.70;;;;;;;;;;6219091;23;20598;-92
2022/01/19 16:55:37;;;;;;;39.57;15.40;;;;;;;;;;6215912;23;20176;-91
2022/01/19 16:58:44;;;;;;;43.73;16.77;;;;;;;;;;6218298;23;20232;-89
2022/01/19 17:01:52;;;;;;;47.47;16.57;;;;;;;;;;6216069;23;20195;-90
2022/01/19 17:04:57;;;;;;;40.03;16.53;;;;;;;;;;6217962;23;20175;-90
2022/01/19 17:08:05;;;;;;;43.87;16.87;;;;;;;;;;6217021;23;20216;-90
2022/01/19 17:11:12;;;;;;;44.83;16.10;;;;;;;;;;6215358;23;20162;-91
2022/01/19 17:14:22;;;;;;;40.83;16.40;;;;;;;;;;6216869;23;20228;-90
2022/01/19 17:17:45;;;;;;;42.23;16.53;;;;;;;;;;6218591;23;20190;-90
2022/01/19 17:20:53;;;;;;;42.03;15.87;;;;;;;;;;6218780;23;20250;-92
2022/01/19 17:24:01;;;;;;;41.17;16.20;;;;;;;;;;6217971;23;20194;-90
2022/01/19 17:27:07;;;;;;;40.93;15.63;;;;;;;;;;6219297;23;20239;-91
2022/01/19 17:30:13;;;;;;;40.33;16.13;;;;;;;;;;6217812;23;20163;-90
2022/01/19 17:33:26;;;;;;;37.33;15.43;;;;;;;;;;6217279;23;20146;-90
2022/01/19 17:36:34;;;;;;;41.40;16.10;;;;;;;;;;6217988;23;20238;-92
2022/01/19 17:39:47;;;;;;;48.00;17.73;;;;;;;;;;6236212;23;20171;-91
2022/01/19 17:42:54;;;;;;;41.60;15.90;;;;;;;;;;6219038;23;20186;-90
2022/01/19 17:46:13;;;;;;;43.00;16.50;;;;;;;;;;6236434;23;20190;-91
2022/01/19 17:53:15;;;;;;;39.17;15.97;;;;;;;;;;6220379;23;20159;-92
2022/01/19 18:00:51;;;;;;;45.13;18.80;;;;;;;;;;6236768;23;20147;-90
2022/01/19 18:04:01;;;;;;;66.23;23.63;;;;;;;;;;6218380;23;20223;-90
2022/01/19 18:07:07;;;;;;;53.50;20.53;;;;;;;;;;6220381;23;20176;-91
2022/01/19 18:10:13;;;;;;;50.80;18.07;;;;;;;;;;6219233;23;20191;-91
2022/01/19 18:13:23;;;;;;;42.33;16.97;;;;;;;;;;6218936;23;20155;-90
2022/01/19 18:16:41;;;;;;;41.03;16.17;;;;;;;;;;6220142;23;20168;-91
2022/01/19 18:19:46;;;;;;;48.10;18.67;;;;;;;;;;6219326;23;20633;-89
2022/01/19 19:04:56;;;;;;;58.83;22.43;;;;;;;;;;6264169;22;20608;-92
2022/01/19 19:08:02;;;;;;;63.10;23.13;;;;;;;;;;6249022;23;20538;-90
2022/01/19 19:11:20;;;;;;;63.37;23.53;;;;;;;;;;6249336;22;20228;-91
2022/01/19 19:14:25;;;;;;;68.83;24.83;;;;;;;;;;6248814;23;20174;-91
2022/01/19 19:17:33;;;;;;;63.93;23.77;;;;;;;;;;6249597;22;20167;-88
2022/01/19 19:20:41;;;;;;;54.20;20.63;;;;;;;;;;6248496;22;20194;-90
2022/01/19 19:23:46;;;;;;;52.93;21.40;;;;;;;;;;6246719;23;20209;-91
2022/01/19 19:30:38;;;;;;;52.70;17.37;;;;;;;;;;6249100;22;20190;-91
2022/01/19 19:37:23;;;;;;;47.77;18.20;;;;;;;;;;6250063;22;20143;-90
2022/01/19 19:40:29;;;;;;;56.90;18.03;;;;;;;;;;6247261;23;20613;-90
2022/01/19 19:43:35;;;;;;;52.80;20.43;;;;;;;;;;6246393;23;20568;-90
2022/01/19 19:46:40;;;;;;;51.57;20.33;;;;;;;;;;6247171;23;20186;-88
2022/01/19 19:49:45;;;;;;;65.80;22.73;;;;;;;;;;6245403;23;20194;-88
2022/01/19 19:52:57;;;;;;;56.43;19.87;;;;;;;;;;6245136;23;20174;-90
2022/01/19 19:56:03;;;;;;;59.00;22.00;;;;;;;;;;6245305;23;20185;-90
2022/01/19 19:59:08;;;;;;;44.90;18.13;;;;;;;;;;6246120;23;20166;-90
2022/01/19 20:02:15;;;;;;;46.90;20.37;;;;;;;;;;6246348;23;20197;-90
2022/01/19 20:05:21;;;;;;;47.63;19.90;;;;;;;;;;6243568;23;20174;-90
2022/01/19 20:08:31;;;;;;;48.37;18.03;;;;;;;;;;6244179;23;20217;-90
2022/01/19 20:11:40;;;;;;;36.83;15.40;;;;;;;;;;6245762;23;20680;-89
2022/01/19 20:14:45;;;;;;;48.27;18.53;;;;;;;;;;6245755;23;20285;-89
2022/01/19 20:17:53;;;;;;;42.87;16.53;;;;;;;;;;6247467;23;20217;-91
2022/01/19 20:20:59;;;;;;;43.57;16.53;;;;;;;;;;6244475;23;20166;-88
2022/01/19 20:24:09;;;;;;;47.50;19.00;;;;;;;;;;6245205;23;20183;-90
2022/01/19 20:27:14;;;;;;;45.93;18.87;;;;;;;;;;6243255;23;20174;-90
2022/01/19 20:30:20;;;;;;;44.17;16.67;;;;;;;;;;6244529;23;20162;-90
2022/01/19 20:33:27;;;;;;;58.93;18.10;;;;;;;;;;6245248;23;20194;-90
2022/01/19 20:36:32;;;;;;;46.77;17.93;;;;;;;;;;6246051;23;20175;-89
2022/01/19 20:39:39;;;;;;;48.20;18.73;;;;;;;;;;6244276;22;20174;-91
2022/01/19 20:42:45;;;;;;;48.20;19.00;;;;;;;;;;6243737;23;20174;-91
2022/01/19 20:45:50;;;;;;;49.50;18.83;;;;;;;;;;6244307;22;20165;-92
2022/01/19 20:48:54;;;;;;;51.83;20.27;;;;;;;;;;6243878;23;20171;-91
2022/01/19 20:52:00;;;;;;;47.20;18.70;;;;;;;;;;6245332;22;20166;-91
2022/01/19 20:55:08;;;;;;;49.30;20.33;;;;;;;;;;6245214;23;20175;-91
2022/01/19 20:58:13;;;;;;;49.30;19.47;;;;;;;;;;6244506;23;20675;-91
2022/01/19 21:01:20;;;;;;;51.87;18.80;;;;;;;;;;6262800;23;20170;-91
2022/01/19 21:04:25;;;;;;;55.60;22.53;;;;;;;;;;6244547;23;20208;-90
2022/01/19 21:07:30;;;;;;;51.03;19.40;;;;;;;;;;6243360;23;20178;-90
2022/01/19 21:10:38;;;;;;;50.80;18.57;;;;;;;;;;6243286;23;20166;-91
2022/01/19 21:13:43;;;;;;;57.00;19.20;;;;;;;;;;6245336;23;20166;-90
2022/01/19 21:16:48;;;;;;;50.73;20.77;;;;;;;;;;6244338;23;20178;-89
2022/01/19 21:19:54;;;;;;;45.60;19.07;;;;;;;;;;6244692;23;20170;-90
2022/01/19 21:23:00;;;;;;;48.23;18.00;;;;;;;;;;6248738;23;20211;-89
2022/01/19 21:26:08;;;;;;;48.63;19.10;;;;;;;;;;6244441;23;20158;-92
2022/01/19 21:29:13;;;;;;;48.13;18.70;;;;;;;;;;6243588;22;20533;-91
2022/01/19 21:32:18;;;;;;;50.77;19.43;;;;;;;;;;6244330;22;20186;-90
2022/01/19 21:35:24;;;;;;;38.80;15.33;;;;;;;;;;6244881;23;20668;-91
2022/01/19 21:38:29;;;;;;;46.43;18.40;;;;;;;;;;6243529;23;20182;-90
2022/01/19 21:41:35;;;;;;;46.77;18.47;;;;;;;;;;6242786;23;20166;-93
2022/01/19 21:44:42;;;;;;;44.67;18.63;;;;;;;;;;6262358;22;20182;-91
2022/01/19 21:47:49;;;;;;;52.47;19.47;;;;;;;;;;6244961;23;20170;-89
2022/01/19 21:50:57;;;;;;;55.77;21.67;;;;;;;;;;6245376;23;20186;-91
2022/01/19 21:54:03;;;;;;;46.53;18.70;;;;;;;;;;6245035;23;20170;-91
2022/01/19 21:57:10;;;;;;;47.67;18.77;;;;;;;;;;6244657;23;20166;-90
2022/01/19 22:00:17;;;;;;;45.13;17.97;;;;;;;;;;6248062;23;20147;-92
2022/01/19 23:05:17;;;;;;;45.00;18.07;;;;;;;;;;6226337;22;20218;-90
2022/01/19 23:08:24;;;;;;;40.03;16.60;;;;;;;;;;6253449;22;20150;-90
2022/01/19 23:14:35;;;;;;;50.93;19.10;;;;;;;;;;6208525;23;20199;-91
2022/01/19 23:32:44;;;;;;;28.73;13.47;;;;;;;;;;6145444;22;1202123;-90
2022/01/19 23:36:23;;;;;;;24.37;10.37;;;;;;;;;;6207808;23;20183;-91
2022/01/19 23:39:44;;;;;;;24.73;9.93;;;;;;;;;;6208211;23;20179;-91
2022/01/19 23:49:39;;;;;;;24.13;10.20;;;;;;;;;;6206733;23;20192;-90
2022/01/19 23:52:48;;;;;;;17.13;7.53;;;;;;;;;;6205829;23;20167;-89
2022/01/19 23:56:04;;;;;;;19.67;8.27;;;;;;;;;;6206992;23;20212;-90
2022/01/19 23:59:12;;;;;;;19.37;7.97;;;;;;;;;;6205329;23;20227;-90
